Time;durP1;ratioP1;P1;durP2;ratioP2;P2;SDS_P1;SDS_P2;PMS_P1;PMS_P2;Temp;Humidity;BMP_temperature;BMP_pressure;BME280_temperature;BME280_humidity;BME280_pressure;Samples;Min_cycle;Max_cycle;Signal;HPM_P1;HPM_P2
2023/07/13 00:00:51;;;;;;;4.65;2.90;;;12.60;99.90;;;;;;4990427;28;20250;-74
2023/07/13 00:03:24;;;;;;;4.47;2.60;;;12.80;99.90;;;;;;4991811;28;20566;-75
2023/07/13 00:06:02;;;;;;;3.70;2.38;;;12.80;99.90;;;;;;4995380;28;20195;-75
2023/07/13 00:08:35;;;;;;;4.32;2.72;;;12.90;99.90;;;;;;4995154;28;20195;-74
2023/07/13 00:11:06;;;;;;;3.30;2.13;;;13.10;99.90;;;;;;4994178;28;20569;-74
2023/07/13 00:13:38;;;;;;;5.13;2.38;;;13.20;99.90;;;;;;4994320;28;20721;-74
2023/07/13 00:16:09;;;;;;;3.58;2.08;;;13.40;99.90;;;;;;4993198;28;20234;-74
2023/07/13 00:18:42;;;;;;;3.45;2.00;;;13.50;99.90;;;;;;4990023;28;20199;-75
2023/07/13 00:21:12;;;;;;;3.53;1.98;;;13.60;99.90;;;;;;4993389;28;20203;-75
2023/07/13 00:23:45;;;;;;;3.92;1.90;;;13.70;99.90;;;;;;4987303;28;20206;-74
2023/07/13 00:26:17;;;;;;;4.00;1.90;;;13.80;99.90;;;;;;4989373;28;20214;-75
2023/07/13 00:28:48;;;;;;;4.10;2.33;;;13.90;99.90;;;;;;4991940;28;20207;-75
2023/07/13 00:31:19;;;;;;;3.65;1.92;;;14.00;99.90;;;;;;4986422;28;20317;-75
2023/07/13 00:33:51;;;;;;;4.10;1.90;;;14.00;99.90;;;;;;4992957;28;20667;-75
2023/07/13 00:36:23;;;;;;;3.40;1.95;;;14.10;99.90;;;;;;4978956;28;20574;-75
2023/07/13 00:38:54;;;;;;;4.07;2.40;;;14.20;99.90;;;;;;4988733;28;20195;-75
2023/07/13 00:41:26;;;;;;;3.85;1.80;;;14.30;99.90;;;;;;4993447;28;20207;-76
2023/07/13 00:43:56;;;;;;;3.58;1.88;;;14.30;99.90;;;;;;4992967;28;20327;-75
2023/07/13 00:46:30;;;;;;;5.43;2.00;;;14.40;99.90;;;;;;4992894;28;20291;-75
2023/07/13 00:49:06;;;;;;;4.00;1.90;;;14.50;99.90;;;;;;4992959;28;20572;-75
2023/07/13 00:51:43;;;;;;;3.95;1.98;;;14.70;99.90;;;;;;4989604;28;20229;-75
2023/07/13 00:54:17;;;;;;;3.63;1.98;;;14.80;99.90;;;;;;4986609;28;20675;-75
2023/07/13 00:56:50;;;;;;;3.20;1.73;;;14.90;99.90;;;;;;4992522;28;20583;-75
2023/07/13 00:59:23;;;;;;;2.90;1.90;;;15.00;99.90;;;;;;4993713;28;20210;-75
2023/07/13 01:01:54;;;;;;;2.85;1.90;;;15.10;99.90;;;;;;4992022;28;20236;-76
2023/07/13 01:04:28;;;;;;;3.38;1.90;;;15.20;99.90;;;;;;4974803;28;20189;-75
2023/07/13 01:06:59;;;;;;;2.95;1.90;;;15.20;99.90;;;;;;4991190;28;20211;-75
2023/07/13 01:09:30;;;;;;;3.55;2.00;;;15.30;99.90;;;;;;4994272;28;20712;-75
2023/07/13 01:12:01;;;;;;;3.67;1.80;;;15.40;99.90;;;;;;4993072;28;20203;-75
2023/07/13 01:14:32;;;;;;;3.03;1.85;;;15.50;99.90;;;;;;4985262;28;20214;-76
2023/07/13 01:17:03;;;;;;;3.28;1.58;;;15.60;99.90;;;;;;4983921;28;20226;-76
2023/07/13 01:19:40;;;;;;;3.45;1.80;;;15.70;99.90;;;;;;4986296;28;20203;-75
2023/07/13 01:22:15;;;;;;;2.70;1.65;;;15.80;99.90;;;;;;4986312;28;20655;-75
2023/07/13 01:24:47;;;;;;;5.13;2.20;;;15.90;99.90;;;;;;4989102;28;20726;-75
2023/07/13 01:27:20;;;;;;;5.07;1.70;;;16.00;99.90;;;;;;4982690;28;20198;-75
2023/07/13 01:29:51;;;;;;;4.32;1.60;;;16.10;99.90;;;;;;4993900;28;20191;-75
2023/07/13 01:32:23;;;;;;;6.88;1.80;;;16.10;99.90;;;;;;4993750;28;20710;-75
2023/07/13 01:34:56;;;;;;;2.08;1.50;;;16.20;99.90;;;;;;4993958;28;20562;-74
2023/07/13 01:37:35;;;;;;;2.55;1.70;;;16.40;99.90;;;;;;4993678;28;20231;-75
2023/07/13 01:40:08;;;;;;;4.22;1.52;;;16.50;99.90;;;;;;4993629;28;20187;-74
2023/07/13 01:42:39;;;;;;;3.67;1.52;;;16.60;99.90;;;;;;4992888;28;20298;-74
2023/07/13 01:45:11;;;;;;;2.85;1.50;;;16.60;99.90;;;;;;4993860;28;20196;-75
2023/07/13 01:47:42;;;;;;;1.85;1.30;;;16.70;99.90;;;;;;4993779;28;20564;-75
2023/07/13 01:50:14;;;;;;;3.70;1.40;;;16.60;99.90;;;;;;4993687;28;20225;-75
2023/07/13 01:52:47;;;;;;;1.92;1.10;;;16.70;99.90;;;;;;4993526;28;20200;-75
2023/07/13 01:55:18;;;;;;;3.65;1.60;;;16.80;99.90;;;;;;4993489;28;20196;-75
2023/07/13 01:57:49;;;;;;;4.20;1.52;;;16.80;99.90;;;;;;4993780;28;20647;-75
2023/07/13 02:00:20;;;;;;;3.83;1.30;;;16.80;99.90;;;;;;4993347;28;20241;-75
2023/07/13 02:02:52;;;;;;;1.90;1.40;;;16.80;99.90;;;;;;4993797;28;20198;-75
2023/07/13 02:05:23;;;;;;;2.90;1.38;;;16.90;99.90;;;;;;4993358;28;20192;-75
2023/07/13 02:07:56;;;;;;;1.75;1.30;;;17.00;99.90;;;;;;4993907;28;20191;-75
2023/07/13 02:10:28;;;;;;;4.03;1.55;;;17.10;99.90;;;;;;4993602;28;20230;-75
2023/07/13 02:12:59;;;;;;;1.90;1.30;;;17.10;99.90;;;;;;4993628;28;20242;-75
2023/07/13 02:15:30;;;;;;;2.60;1.60;;;17.10;99.90;;;;;;4993484;28;20202;-75
2023/07/13 02:18:01;;;;;;;3.13;1.42;;;17.30;99.90;;;;;;4993522;28;20643;-74
2023/07/13 02:20:33;;;;;;;3.40;1.60;;;17.40;99.90;;;;;;4980396;28;20197;-75
2023/07/13 02:23:06;;;;;;;2.83;1.83;;;17.70;99.90;;;;;;4973922;28;20192;-75
2023/07/13 02:25:37;;;;;;;4.75;1.55;;;17.70;99.90;;;;;;4984490;28;20203;-74
2023/07/13 02:28:08;;;;;;;2.80;1.75;;;17.70;99.90;;;;;;4995254;28;20207;-75
2023/07/13 02:30:41;;;;;;;2.58;1.30;;;17.70;99.90;;;;;;4995799;28;20678;-75
2023/07/13 02:33:12;;;;;;;3.22;1.35;;;17.80;99.90;;;;;;4996925;28;20192;-75
2023/07/13 02:35:43;;;;;;;2.05;1.58;;;18.00;99.90;;;;;;4997220;28;20188;-75
2023/07/13 02:38:16;;;;;;;2.58;1.63;;;18.10;99.90;;;;;;4977380;28;20203;-75
2023/07/13 02:40:48;;;;;;;4.00;1.83;;;18.20;99.90;;;;;;4977377;28;20663;-75
2023/07/13 02:43:19;;;;;;;3.67;1.40;;;18.30;99.90;;;;;;4978355;28;20678;-75
2023/07/13 02:45:50;;;;;;;3.20;1.95;;;18.40;99.90;;;;;;4996850;28;20202;-75
2023/07/13 02:48:22;;;;;;;3.00;1.40;;;18.40;99.90;;;;;;4996657;28;20184;-75
2023/07/13 02:50:53;;;;;;;2.72;1.50;;;18.50;99.90;;;;;;4996548;28;20235;-75
2023/07/13 02:53:26;;;;;;;1.75;1.40;;;18.50;99.90;;;;;;4996475;28;20640;-75
2023/07/13 02:55:57;;;;;;;3.47;1.42;;;18.60;99.90;;;;;;4996587;28;20279;-75
2023/07/13 02:58:29;;;;;;;3.03;1.60;;;18.70;99.90;;;;;;4996607;28;20603;-75
2023/07/13 03:01:00;;;;;;;3.17;1.48;;;18.70;99.90;;;;;;4996308;28;20239;-75
2023/07/13 03:03:31;;;;;;;2.95;1.70;;;18.70;99.90;;;;;;4996545;28;20202;-75
2023/07/13 03:06:08;;;;;;;2.60;1.48;;;18.70;99.90;;;;;;4996414;28;20195;-76
2023/07/13 03:08:41;;;;;;;1.92;1.30;;;18.70;99.90;;;;;;4996418;28;20278;-75
2023/07/13 03:11:17;;;;;;;4.40;1.63;;;18.70;99.90;;;;;;4996481;28;20191;-75
2023/07/13 03:13:48;;;;;;;2.47;1.45;;;18.80;99.90;;;;;;4996441;28;20198;-75
2023/07/13 03:16:20;;;;;;;4.13;1.90;;;18.90;99.90;;;;;;4995074;28;20260;-76
2023/07/13 03:18:52;;;;;;;3.85;1.70;;;18.90;99.90;;;;;;4996041;28;20558;-75
2023/07/13 03:21:23;;;;;;;4.90;1.77;;;19.00;99.90;;;;;;4996360;28;20198;-76
2023/07/13 03:23:56;;;;;;;3.15;1.40;;;19.00;99.90;;;;;;4996380;28;20196;-76
2023/07/13 03:26:27;;;;;;;3.03;1.50;;;19.00;99.90;;;;;;4996181;28;20207;-75
2023/07/13 03:28:59;;;;;;;2.00;1.40;;;19.20;99.90;;;;;;4996014;28;20191;-76
2023/07/13 03:31:31;;;;;;;2.63;1.50;;;19.20;99.90;;;;;;4996031;28;20202;-75
2023/07/13 03:34:02;;;;;;;4.05;1.45;;;19.30;99.90;;;;;;4995857;28;20573;-75
2023/07/13 03:36:34;;;;;;;2.63;1.60;;;19.30;99.90;;;;;;4994630;28;20228;-75
2023/07/13 03:39:08;;;;;;;4.22;1.40;;;19.40;99.90;;;;;;4995871;28;20206;-75
2023/07/13 03:41:39;;;;;;;4.82;1.77;;;19.40;99.90;;;;;;4995782;28;20200;-74
2023/07/13 03:44:10;;;;;;;4.53;2.15;;;19.40;99.90;;;;;;4995788;28;20640;-75
2023/07/13 03:46:41;;;;;;;4.55;1.90;;;19.40;99.90;;;;;;4995749;28;20192;-75
2023/07/13 03:49:12;;;;;;;4.05;1.60;;;19.50;99.90;;;;;;4996077;28;20230;-74
2023/07/13 03:51:44;;;;;;;7.07;2.47;;;19.40;99.90;;;;;;4995411;28;20232;-75
2023/07/13 03:54:17;;;;;;;3.75;1.40;;;19.30;99.90;;;;;;4996420;28;20215;-75
2023/07/13 03:56:48;;;;;;;4.30;1.83;;;19.30;99.90;;;;;;4995545;28;20219;-75
2023/07/13 03:59:19;;;;;;;3.15;1.60;;;19.40;99.90;;;;;;4995796;28;20214;-75
2023/07/13 04:01:50;;;;;;;6.13;1.77;;;19.40;99.90;;;;;;4995236;28;20239;-75
2023/07/13 04:04:21;;;;;;;3.78;1.45;;;19.40;99.90;;;;;;4995553;28;20242;-75
2023/07/13 04:06:53;;;;;;;4.20;1.42;;;19.40;99.90;;;;;;4995182;28;20215;-74
2023/07/13 04:09:27;;;;;;;4.80;1.33;;;19.50;99.90;;;;;;4995106;28;20203;-75
2023/07/13 04:11:58;;;;;;;5.40;1.33;;;19.50;99.90;;;;;;4995039;28;20199;-74
2023/07/13 04:14:29;;;;;;;4.10;1.50;;;19.60;99.90;;;;;;4995156;28;20191;-74
2023/07/13 04:17:00;;;;;;;3.72;1.40;;;19.60;99.90;;;;;;4995109;28;20588;-74
2023/07/13 04:19:31;;;;;;;1.90;1.20;;;19.60;99.90;;;;;;4993918;28;20203;-74
2023/07/13 04:22:02;;;;;;;5.43;1.70;;;19.60;99.90;;;;;;4990646;28;20282;-75
2023/07/13 04:24:35;;;;;;;4.88;1.60;;;19.60;99.90;;;;;;4993696;28;20715;-75
2023/07/13 04:27:07;;;;;;;5.30;1.77;;;19.70;99.90;;;;;;4992483;28;20196;-75
2023/07/13 04:29:38;;;;;;;3.28;1.42;;;19.70;99.90;;;;;;4994862;28;20713;-74
2023/07/13 04:32:10;;;;;;;6.88;1.38;;;19.70;99.90;;;;;;4994827;28;20196;-75
2023/07/13 04:34:41;;;;;;;4.25;1.30;;;19.80;99.90;;;;;;4975169;28;20196;-75
2023/07/13 04:37:12;;;;;;;3.15;1.30;;;19.90;99.90;;;;;;4975207;28;20608;-74
2023/07/13 04:39:45;;;;;;;3.10;1.23;;;19.90;99.90;;;;;;4975300;28;20195;-75
2023/07/13 04:42:16;;;;;;;4.75;1.75;;;19.90;99.90;;;;;;4975702;28;20279;-75
2023/07/13 04:44:51;;;;;;;3.60;1.10;;;19.80;99.90;;;;;;4978743;28;20187;-75
2023/07/13 04:47:22;;;;;;;2.72;1.30;;;19.80;99.90;;;;;;4994077;28;20249;-75
2023/07/13 04:49:53;;;;;;;1.67;1.00;;;19.80;99.90;;;;;;4994494;28;20195;-75
2023/07/13 04:52:24;;;;;;;3.95;1.45;;;19.80;99.90;;;;;;4994377;28;20542;-74
2023/07/13 04:54:58;;;;;;;3.25;1.27;;;19.80;99.90;;;;;;4994777;28;20206;-74
2023/07/13 04:57:29;;;;;;;2.47;1.10;;;19.80;99.90;;;;;;4994358;28;20219;-75
2023/07/13 05:00:00;;;;;;;1.92;1.10;;;19.80;99.90;;;;;;4993982;28;20214;-75
2023/07/13 05:02:32;;;;;;;3.95;1.00;;;19.80;99.90;;;;;;4994219;28;20192;-74
2023/07/13 05:05:03;;;;;;;4.05;1.33;;;19.90;99.90;;;;;;4994659;28;20202;-76
2023/07/13 05:07:35;;;;;;;2.05;1.10;;;19.90;99.90;;;;;;4994354;28;20187;-75
2023/07/13 05:10:08;;;;;;;1.88;1.08;;;19.90;99.90;;;;;;4993365;28;20301;-74
2023/07/13 05:12:40;;;;;;;1.45;1.00;;;19.90;99.90;;;;;;4985333;28;20230;-74
2023/07/13 05:15:11;;;;;;;1.95;0.93;;;19.90;99.90;;;;;;4980134;28;20713;-75
2023/07/13 05:17:42;;;;;;;3.35;1.20;;;20.00;99.90;;;;;;4988440;28;20231;-76
2023/07/13 05:20:14;;;;;;;3.97;1.30;;;20.00;99.90;;;;;;4981948;28;20206;-75
2023/07/13 05:22:46;;;;;;;3.13;1.05;;;20.00;99.90;;;;;;4989671;28;20679;-76
2023/07/13 05:25:19;;;;;;;1.85;1.10;;;19.90;99.90;;;;;;4989135;28;20206;-75
2023/07/13 05:27:50;;;;;;;2.25;0.90;;;19.90;99.90;;;;;;4991579;28;20200;-76
2023/07/13 05:30:22;;;;;;;4.40;1.00;;;19.90;99.90;;;;;;4993649;28;20200;-75
2023/07/13 05:32:53;;;;;;;1.75;0.90;;;19.90;99.90;;;;;;4985892;28;20211;-75
2023/07/13 05:35:24;;;;;;;2.47;1.10;;;19.90;99.90;;;;;;4993535;28;20209;-75
2023/07/13 05:37:55;;;;;;;2.45;1.00;;;19.90;99.90;;;;;;4993502;28;20231;-76
2023/07/13 05:40:28;;;;;;;2.08;1.10;;;19.80;99.90;;;;;;4993986;28;20203;-75
2023/07/13 05:42:59;;;;;;;1.80;0.95;;;19.80;99.90;;;;;;4993474;28;20199;-76
2023/07/13 05:45:31;;;;;;;1.42;1.00;;;19.80;99.90;;;;;;4992605;28;20206;-76
2023/07/13 05:48:02;;;;;;;2.55;1.08;;;19.70;99.90;;;;;;4983297;28;20237;-76
2023/07/13 05:50:33;;;;;;;2.22;0.80;;;19.80;99.90;;;;;;4993578;28;20230;-75
2023/07/13 05:53:04;;;;;;;1.92;1.00;;;19.70;99.90;;;;;;4991356;28;20344;-76
2023/07/13 05:55:37;;;;;;;3.15;0.88;;;19.70;99.90;;;;;;4989431;28;20644;-76
2023/07/13 05:58:09;;;;;;;1.35;1.00;;;19.60;99.90;;;;;;4990700;28;20215;-76
2023/07/13 06:00:40;;;;;;;3.25;0.93;;;19.70;99.90;;;;;;4994446;28;20231;-76
2023/07/13 06:03:11;;;;;;;1.02;0.70;;;19.60;99.90;;;;;;4994217;28;20212;-75
2023/07/13 06:05:42;;;;;;;1.83;0.90;;;19.50;99.90;;;;;;4995921;28;20682;-75
2023/07/13 06:08:13;;;;;;;2.47;0.80;;;19.50;99.90;;;;;;4993352;28;20545;-76
2023/07/13 06:10:46;;;;;;;1.20;0.90;;;19.40;99.90;;;;;;4993992;28;20573;-76
2023/07/13 06:13:19;;;;;;;1.00;0.85;;;19.30;99.90;;;;;;4995681;28;20222;-76
2023/07/13 06:15:52;;;;;;;1.90;0.80;;;19.20;99.90;;;;;;4996917;28;20661;-76
2023/07/13 06:18:23;;;;;;;1.70;0.93;;;19.20;99.90;;;;;;4992976;28;20211;-76
2023/07/13 06:20:54;;;;;;;1.23;0.80;;;19.10;99.90;;;;;;4994754;28;20206;-76
2023/07/13 06:23:25;;;;;;;2.70;1.10;;;19.00;99.90;;;;;;4980998;28;20199;-75
2023/07/13 06:25:58;;;;;;;2.58;1.15;;;19.00;99.90;;;;;;4995810;28;20667;-76
2023/07/13 06:28:30;;;;;;;2.22;1.30;;;18.90;99.90;;;;;;4995280;28;20287;-76
2023/07/13 06:31:01;;;;;;;2.55;1.50;;;18.80;99.90;;;;;;4992035;28;20670;-76
2023/07/13 06:33:32;;;;;;;2.70;1.50;;;18.70;99.90;;;;;;4995782;28;20215;-75
2023/07/13 06:36:03;;;;;;;3.60;1.50;;;18.60;99.90;;;;;;4995997;28;20204;-76
2023/07/13 06:38:34;;;;;;;2.75;1.60;;;18.50;99.90;;;;;;4996056;28;20232;-76
2023/07/13 06:41:08;;;;;;;2.80;1.63;;;18.40;99.90;;;;;;4994658;28;20200;-76
2023/07/13 06:43:39;;;;;;;3.15;1.70;;;18.30;99.90;;;;;;4994746;28;20211;-76
2023/07/13 06:46:10;;;;;;;3.83;1.80;;;18.20;99.90;;;;;;4993029;28;20209;-75
2023/07/13 06:48:41;;;;;;;4.40;2.00;;;18.00;99.90;;;;;;4992512;28;20204;-76
2023/07/13 06:51:12;;;;;;;5.88;2.00;;;17.90;99.90;;;;;;4995813;28;20225;-76
2023/07/13 06:53:44;;;;;;;10.80;3.15;;;17.80;99.90;;;;;;4984657;28;20200;-75
2023/07/13 06:56:17;;;;;;;11.63;3.15;;;17.60;99.90;;;;;;4986568;28;20207;-76
2023/07/13 06:58:48;;;;;;;11.18;2.90;;;17.40;99.90;;;;;;4993605;28;20578;-75
2023/07/13 07:01:19;;;;;;;8.65;2.45;;;17.30;99.90;;;;;;4995931;28;20714;-76
2023/07/13 07:03:50;;;;;;;5.30;2.38;;;17.10;99.90;;;;;;4996283;28;20569;-75
2023/07/13 07:06:23;;;;;;;7.35;2.65;;;17.00;99.90;;;;;;4996216;28;20199;-75
2023/07/13 07:08:55;;;;;;;7.60;2.80;;;16.80;99.90;;;;;;4996278;28;20235;-76
2023/07/13 07:11:29;;;;;;;5.40;2.53;;;16.70;99.90;;;;;;4993965;28;20196;-76
2023/07/13 07:14:00;;;;;;;3.78;2.63;;;16.50;99.90;;;;;;4994604;28;20196;-75
2023/07/13 07:16:31;;;;;;;5.00;2.80;;;16.40;99.90;;;;;;4995559;28;20679;-75
2023/07/13 07:19:02;;;;;;;5.35;2.90;;;16.30;99.90;;;;;;4995882;28;20219;-75
2023/07/13 07:21:33;;;;;;;3.67;2.67;;;16.30;99.90;;;;;;4996021;28;20200;-76
2023/07/13 07:24:04;;;;;;;6.82;2.70;;;16.20;99.90;;;;;;4994750;28;20196;-75
2023/07/13 07:26:37;;;;;;;4.03;2.20;;;16.10;99.90;;;;;;4994738;28;20199;-75
2023/07/13 07:29:08;;;;;;;5.40;2.10;;;16.00;99.90;;;;;;4995789;28;20211;-75
2023/07/13 07:31:39;;;;;;;5.35;1.73;;;15.90;99.90;;;;;;4995090;28;20196;-76
2023/07/13 07:34:11;;;;;;;5.43;2.30;;;15.80;99.90;;;;;;4995691;28;20212;-76
2023/07/13 07:36:42;;;;;;;1.73;1.63;;;15.70;99.90;;;;;;4994398;28;20655;-75
2023/07/13 07:39:13;;;;;;;3.83;1.95;;;15.60;99.90;;;;;;4995607;28;20723;-74
2023/07/13 07:41:46;;;;;;;4.70;2.30;;;15.60;99.90;;;;;;4994203;28;20196;-75
2023/07/13 07:44:18;;;;;;;7.30;2.15;;;15.50;99.90;;;;;;4995690;28;20282;-75
2023/07/13 07:46:49;;;;;;;6.60;2.33;;;15.40;99.90;;;;;;4995603;28;20203;-75
2023/07/13 07:49:20;;;;;;;4.65;2.50;;;15.40;99.90;;;;;;4994545;28;20382;-75
2023/07/13 07:51:51;;;;;;;5.57;2.25;;;15.30;99.90;;;;;;4993257;28;20594;-76
2023/07/13 07:54:22;;;;;;;3.47;2.20;;;15.20;99.90;;;;;;4994945;28;20214;-75
2023/07/13 07:56:55;;;;;;;5.38;2.20;;;15.20;99.90;;;;;;4994187;28;20202;-75
2023/07/13 07:59:26;;;;;;;4.88;2.35;;;15.10;99.90;;;;;;4995180;28;20216;-75
2023/07/13 08:01:57;;;;;;;3.88;2.10;;;15.10;99.90;;;;;;4995114;28;20699;-75
2023/07/13 08:04:28;;;;;;;7.13;2.58;;;15.10;99.90;;;;;;4995099;28;20207;-75
2023/07/13 08:07:02;;;;;;;6.43;2.95;;;15.00;99.90;;;;;;4995294;28;20200;-74
2023/07/13 08:09:33;;;;;;;4.15;2.05;;;14.90;99.90;;;;;;4995129;28;20206;-75
2023/07/13 08:12:07;;;;;;;4.57;1.90;;;14.90;99.90;;;;;;4992766;28;20210;-75
2023/07/13 08:14:38;;;;;;;7.22;2.13;;;14.80;99.90;;;;;;4992751;28;20702;-75
2023/07/13 08:17:09;;;;;;;5.35;1.85;;;14.70;99.90;;;;;;4993939;28;20196;-75
2023/07/13 08:19:40;;;;;;;3.25;1.75;;;14.70;99.90;;;;;;4982718;28;20223;-75
2023/07/13 08:22:11;;;;;;;4.90;2.10;;;14.60;99.90;;;;;;4994539;28;20212;-75
2023/07/13 08:24:43;;;;;;;3.88;2.00;;;14.60;99.90;;;;;;4994649;28;20678;-75
2023/07/13 08:27:17;;;;;;;4.20;1.92;;;14.60;99.90;;;;;;4994521;28;20199;-75
2023/07/13 08:29:50;;;;;;;3.45;1.90;;;14.60;99.90;;;;;;4994711;28;20204;-75
2023/07/13 08:32:22;;;;;;;4.25;1.85;;;14.60;99.90;;;;;;4993503;28;20206;-75
2023/07/13 08:34:53;;;;;;;3.65;1.90;;;14.50;99.90;;;;;;4993618;28;20200;-75
2023/07/13 08:37:24;;;;;;;3.58;2.30;;;14.50;99.90;;;;;;4993461;28;20192;-75
2023/07/13 08:39:56;;;;;;;3.08;2.38;;;14.50;99.90;;;;;;4994367;28;20211;-74
2023/07/13 08:42:36;;;;;;;3.03;2.33;;;14.40;99.90;;;;;;4993896;28;20200;-74
2023/07/13 08:45:17;;;;;;;3.22;2.13;;;14.40;99.90;;;;;;4993512;28;20197;-74
2023/07/13 08:48:01;;;;;;;2.95;2.20;;;14.40;99.90;;;;;;4994861;28;20200;-74
2023/07/13 08:50:42;;;;;;;4.68;2.45;;;14.40;99.90;;;;;;4994481;28;20250;-74
2023/07/13 08:53:17;;;;;;;3.65;2.25;;;14.40;99.90;;;;;;4992738;28;20604;-75
2023/07/13 08:55:49;;;;;;;3.85;2.40;;;14.30;99.90;;;;;;4993361;28;20203;-75
2023/07/13 08:58:22;;;;;;;3.92;2.40;;;14.30;99.90;;;;;;4994209;28;20576;-75
2023/07/13 09:01:01;;;;;;;4.82;2.45;;;14.20;99.90;;;;;;4992458;28;20289;-75
2023/07/13 09:03:49;;;;;;;4.03;2.55;;;14.20;99.90;;;;;;4983154;28;20203;-75
2023/07/13 09:06:22;;;;;;;5.38;2.38;;;14.10;99.90;;;;;;4993035;28;20557;-75
2023/07/13 09:09:03;;;;;;;4.07;2.20;;;14.10;99.90;;;;;;4993982;28;20203;-75
2023/07/13 09:11:52;;;;;;;4.07;2.20;;;14.10;99.90;;;;;;4982095;28;20282;-75
2023/07/13 09:14:42;;;;;;;3.70;2.25;;;14.00;99.90;;;;;;4992978;28;20211;-75
2023/07/13 09:17:19;;;;;;;5.25;2.58;;;14.00;99.90;;;;;;4993764;28;20195;-74
2023/07/13 09:19:56;;;;;;;6.13;3.50;;;13.90;99.90;;;;;;4992665;28;20249;-75
2023/07/13 09:22:30;;;;;;;4.55;2.70;;;13.90;99.90;;;;;;4993428;28;20662;-75
2023/07/13 09:25:07;;;;;;;5.05;2.80;;;13.90;99.90;;;;;;4993983;28;20203;-74
2023/07/13 09:27:41;;;;;;;5.47;3.10;;;13.80;99.90;;;;;;4993906;28;20246;-75
2023/07/13 09:30:30;;;;;;;7.05;3.40;;;13.80;99.90;;;;;;4992441;28;20207;-75
2023/07/13 09:33:01;;;;;;;7.22;3.33;;;13.70;99.90;;;;;;4992539;28;20196;-75
2023/07/13 09:35:33;;;;;;;4.38;2.88;;;13.60;99.90;;;;;;4993211;28;20206;-75
2023/07/13 09:38:14;;;;;;;4.20;2.67;;;13.60;99.90;;;;;;4992672;28;20542;-75
2023/07/13 09:41:08;;;;;;;6.82;3.17;;;13.50;99.90;;;;;;4991686;28;20203;-74
2023/07/13 09:43:39;;;;;;;5.35;3.58;;;13.40;99.90;;;;;;4993930;28;20195;-75
2023/07/13 09:46:24;;;;;;;5.95;3.55;;;13.40;99.90;;;;;;4993814;28;20200;-74
2023/07/13 09:48:55;;;;;;;5.65;3.00;;;13.40;99.90;;;;;;4993813;28;20204;-74
2023/07/13 09:51:26;;;;;;;4.63;2.75;;;13.40;99.90;;;;;;4992444;28;20223;-75
2023/07/13 09:53:58;;;;;;;5.95;3.15;;;13.40;99.90;;;;;;4991637;28;20192;-75
2023/07/13 09:56:32;;;;;;;7.05;3.03;;;13.40;99.90;;;;;;4993462;28;20254;-74
2023/07/13 09:59:03;;;;;;;5.40;3.17;;;13.40;99.90;;;;;;4993433;28;20219;-74
2023/07/13 10:01:41;;;;;;;5.95;3.30;;;13.40;99.90;;;;;;4992008;28;20223;-75
2023/07/13 10:04:16;;;;;;;6.47;3.42;;;13.40;99.90;;;;;;4992405;28;20225;-75
2023/07/13 10:06:47;;;;;;;7.53;3.20;;;13.40;99.90;;;;;;4992608;28;20191;-74
2023/07/13 10:09:20;;;;;;;5.22;3.20;;;13.30;99.90;;;;;;4991202;28;20210;-73
2023/07/13 10:11:54;;;;;;;5.20;3.53;;;13.30;99.90;;;;;;4993465;28;20231;-73
2023/07/13 10:14:26;;;;;;;5.50;3.28;;;13.30;99.90;;;;;;4993345;28;20196;-74
2023/07/13 10:17:02;;;;;;;4.43;2.80;;;13.20;99.90;;;;;;4993242;28;20210;-74
2023/07/13 10:19:37;;;;;;;6.47;3.05;;;13.20;99.90;;;;;;4993139;28;20223;-73
2023/07/13 10:22:24;;;;;;;6.57;3.40;;;13.20;99.90;;;;;;4993057;28;20198;-74
2023/07/13 10:24:57;;;;;;;4.55;3.10;;;13.10;99.90;;;;;;4993295;28;20204;-74
2023/07/13 10:27:35;;;;;;;8.50;5.10;;;13.10;99.90;;;;;;4993264;28;20610;-74
2023/07/13 10:30:15;;;;;;;8.38;4.80;;;13.00;99.90;;;;;;4992155;28;20686;-74
2023/07/13 10:32:48;;;;;;;8.52;5.15;;;12.90;99.90;;;;;;4989787;28;20203;-75
2023/07/13 10:35:22;;;;;;;8.88;4.50;;;12.90;99.90;;;;;;4992140;28;20200;-74
2023/07/13 10:37:57;;;;;;;6.55;3.90;;;12.80;99.90;;;;;;4991759;28;20288;-74
2023/07/13 10:40:33;;;;;;;6.80;4.30;;;12.70;99.90;;;;;;4992181;28;20216;-74
2023/07/13 10:43:07;;;;;;;6.50;3.88;;;12.70;99.90;;;;;;4993187;28;20199;-74
2023/07/13 10:45:40;;;;;;;8.07;4.20;;;12.70;99.90;;;;;;4994995;28;20194;-74
2023/07/13 10:48:16;;;;;;;6.68;3.90;;;12.70;99.90;;;;;;4996565;28;20192;-73
2023/07/13 10:50:54;;;;;;;8.07;3.95;;;12.70;99.90;;;;;;4995020;28;20227;-73
2023/07/13 10:53:30;;;;;;;6.40;4.40;;;12.60;99.90;;;;;;4996814;28;20191;-74
2023/07/13 10:56:08;;;;;;;7.43;4.40;;;12.60;99.90;;;;;;4994519;28;20269;-74
2023/07/13 10:58:40;;;;;;;8.77;4.78;;;12.60;99.90;;;;;;4996679;28;20292;-74
2023/07/13 11:01:13;;;;;;;10.30;5.05;;;12.50;99.90;;;;;;4995597;28;20247;-75
2023/07/13 11:03:58;;;;;;;7.82;4.55;;;12.50;99.90;;;;;;4996630;28;20196;-75
2023/07/13 11:06:41;;;;;;;9.18;4.65;;;12.50;99.90;;;;;;4996681;28;20231;-75
2023/07/13 11:09:34;;;;;;;7.85;4.50;;;12.50;99.90;;;;;;4996789;28;20211;-74
2023/07/13 11:12:09;;;;;;;8.88;4.55;;;12.40;99.90;;;;;;4996491;28;20192;-74
2023/07/13 11:14:45;;;;;;;10.05;5.72;;;12.40;99.90;;;;;;4995534;28;20192;-74
2023/07/13 11:17:38;;;;;;;8.80;5.60;;;12.30;99.90;;;;;;4996420;28;20195;-74
2023/07/13 11:20:34;;;;;;;10.27;5.88;;;12.30;99.90;;;;;;4995183;28;20227;-74
2023/07/13 11:23:30;;;;;;;11.55;6.25;;;12.20;99.90;;;;;;4996563;28;20208;-74
2023/07/13 11:26:02;;;;;;;10.90;6.13;;;12.10;99.90;;;;;;4996230;28;20290;-75
2023/07/13 11:28:36;;;;;;;11.57;5.90;;;12.10;99.90;;;;;;4995059;28;20196;-75
2023/07/13 11:31:18;;;;;;;9.05;6.10;;;12.10;99.90;;;;;;4996088;28;20653;-74
2023/07/13 11:34:01;;;;;;;9.55;5.57;;;12.10;99.90;;;;;;4996308;28;20246;-75
2023/07/13 11:36:45;;;;;;;10.82;5.60;;;12.10;99.90;;;;;;4994145;28;20215;-74
2023/07/13 11:39:23;;;;;;;9.90;5.70;;;12.10;99.90;;;;;;4995905;28;20223;-74
2023/07/13 11:41:57;;;;;;;9.48;5.88;;;12.10;99.90;;;;;;4995938;28;20218;-74
2023/07/13 11:44:31;;;;;;;10.13;6.13;;;12.00;99.90;;;;;;4995917;28;20240;-75
2023/07/13 11:47:04;;;;;;;12.25;6.78;;;12.00;99.90;;;;;;4995899;28;20202;-74
2023/07/13 11:49:41;;;;;;;13.65;7.53;;;11.90;99.90;;;;;;4994599;28;20200;-74
2023/07/13 11:52:20;;;;;;;13.10;7.07;;;11.90;99.90;;;;;;4993417;28;20651;-75
2023/07/13 11:54:55;;;;;;;12.25;6.50;;;11.90;99.90;;;;;;4992479;28;20748;-75
2023/07/13 11:57:31;;;;;;;12.00;6.60;;;11.80;99.90;;;;;;4986978;28;20227;-74
2023/07/13 12:00:05;;;;;;;12.20;6.47;;;11.80;99.90;;;;;;4995287;28;20230;-75
2023/07/13 12:02:40;;;;;;;13.95;6.95;;;11.80;99.90;;;;;;4995417;28;20187;-74
2023/07/13 12:05:15;;;;;;;10.77;6.57;;;11.80;99.90;;;;;;4995481;28;20191;-75
2023/07/13 12:07:49;;;;;;;14.23;6.40;;;11.80;99.90;;;;;;4995465;28;20191;-75
2023/07/13 12:10:25;;;;;;;12.05;6.55;;;11.70;99.90;;;;;;4995325;28;20283;-74
2023/07/13 12:12:58;;;;;;;10.25;6.03;;;11.70;99.90;;;;;;4994466;28;20203;-74
2023/07/13 12:15:39;;;;;;;12.75;6.82;;;11.70;99.90;;;;;;4994164;28;20200;-74
2023/07/13 12:18:17;;;;;;;14.27;7.68;;;11.70;99.90;;;;;;4975720;28;20200;-74
2023/07/13 12:20:49;;;;;;;14.90;7.70;;;11.60;99.90;;;;;;4975677;28;20220;-73
2023/07/13 12:23:27;;;;;;;13.25;7.50;;;11.60;99.90;;;;;;4985545;28;20254;-74
2023/07/13 12:25:59;;;;;;;12.90;6.95;;;11.50;99.90;;;;;;4994060;28;20206;-74
2023/07/13 12:28:36;;;;;;;11.05;6.63;;;11.50;99.90;;;;;;4993057;28;20215;-75
2023/07/13 12:31:09;;;;;;;12.82;7.28;;;11.50;99.90;;;;;;4986633;28;20651;-74
2023/07/13 12:33:43;;;;;;;10.48;6.85;;;11.50;99.90;;;;;;4995223;28;20192;-74
2023/07/13 12:36:16;;;;;;;12.85;7.10;;;11.40;99.90;;;;;;4995272;28;20195;-74
2023/07/13 12:38:50;;;;;;;12.30;7.20;;;11.40;99.90;;;;;;4994829;28;20188;-74
2023/07/13 12:41:23;;;;;;;13.60;7.00;;;11.40;99.90;;;;;;4994809;28;20658;-74
2023/07/13 12:43:54;;;;;;;13.65;7.20;;;11.40;99.90;;;;;;4993124;28;20238;-74
2023/07/13 12:46:29;;;;;;;12.38;7.15;;;11.40;99.90;;;;;;4994572;28;20195;-74
2023/07/13 12:49:01;;;;;;;13.95;7.22;;;11.30;99.90;;;;;;4994673;28;20198;-74
2023/07/13 12:51:32;;;;;;;13.32;7.13;;;11.30;99.90;;;;;;4994798;28;20220;-74
2023/07/13 12:54:18;;;;;;;12.00;6.90;;;11.30;99.90;;;;;;4994607;28;20196;-74
2023/07/13 12:56:57;;;;;;;9.82;6.72;;;11.20;99.90;;;;;;4991900;28;20274;-74
2023/07/13 12:59:38;;;;;;;13.63;6.68;;;11.20;99.90;;;;;;4994175;28;20222;-74
2023/07/13 13:02:29;;;;;;;11.93;7.10;;;11.20;99.90;;;;;;4994120;28;20603;-74
2023/07/13 13:05:01;;;;;;;13.30;6.88;;;11.10;99.90;;;;;;4994393;28;20196;-74
2023/07/13 13:07:32;;;;;;;14.95;7.72;;;11.10;99.90;;;;;;4994409;28;20557;-74
2023/07/13 13:10:13;;;;;;;15.80;7.03;;;11.10;99.90;;;;;;4994316;28;20282;-74
2023/07/13 13:12:44;;;;;;;12.68;7.38;;;11.00;99.90;;;;;;4993464;28;20582;-74
2023/07/13 13:15:16;;;;;;;13.27;6.43;;;11.00;99.90;;;;;;4994164;28;20199;-74
2023/07/13 13:17:47;;;;;;;12.77;6.63;;;11.00;99.90;;;;;;4994188;28;20192;-74